createdAt,value
2018-10-05T00:00:59.884Z,15.20
2018-10-05T00:03:28.324Z,15.20
2018-10-05T00:05:56.433Z,15.20
2018-10-05T00:08:24.877Z,15.20
2018-10-05T00:10:52.999Z,15.20
2018-10-05T00:13:21.135Z,15.20
2018-10-05T00:15:49.586Z,15.20
2018-10-05T00:18:17.780Z,15.20
2018-10-05T00:20:45.917Z,15.10
2018-10-05T00:23:14.734Z,14.90
2018-10-05T00:25:42.984Z,15.20
2018-10-05T00:28:11.133Z,15.30
2018-10-05T00:30:39.640Z,15.30
2018-10-05T00:33:07.763Z,15.60
2018-10-05T00:35:36.129Z,15.40
2018-10-05T00:38:04.372Z,15.20
2018-10-05T00:40:32.574Z,15.20
2018-10-05T00:43:00.696Z,15.10
2018-10-05T00:45:28.840Z,15.20
2018-10-05T00:47:57.044Z,15.20
2018-10-05T00:50:25.187Z,15.10
2018-10-05T00:52:53.355Z,14.90
2018-10-05T00:55:21.431Z,15.00
2018-10-05T00:57:49.544Z,15.00
2018-10-05T01:00:17.681Z,15.30
2018-10-05T01:02:45.799Z,15.10
2018-10-05T01:05:13.964Z,15.40
2018-10-05T01:07:42.194Z,15.60
2018-10-05T01:10:10.677Z,15.80
2018-10-05T01:12:38.842Z,16.00
2018-10-05T01:15:06.955Z,16.00
2018-10-05T01:17:35.080Z,15.90
2018-10-05T01:20:03.208Z,15.80
2018-10-05T01:22:31.372Z,15.50
2018-10-05T01:24:59.565Z,15.10
2018-10-05T01:27:27.636Z,15.10
2018-10-05T01:29:55.771Z,15.00
2018-10-05T01:32:23.900Z,15.00
2018-10-05T01:34:52.032Z,14.70
2018-10-05T01:37:20.160Z,14.80
2018-10-05T01:39:48.287Z,15.20
2018-10-05T01:42:17.323Z,15.60
2018-10-05T01:44:45.455Z,15.80
2018-10-05T01:47:13.809Z,16.00
2018-10-05T01:49:41.932Z,16.00
2018-10-05T01:52:10.042Z,15.90
2018-10-05T01:54:38.286Z,15.90
2018-10-05T01:57:06.524Z,15.90
2018-10-05T01:59:36.048Z,16.10
2018-10-05T02:02:04.200Z,16.10
2018-10-05T02:04:32.314Z,16.10
2018-10-05T02:07:00.436Z,16.20
2018-10-05T02:09:28.943Z,16.30
2018-10-05T02:11:57.048Z,16.30
2018-10-05T02:14:25.580Z,16.20
2018-10-05T02:16:53.680Z,16.00
2018-10-05T02:19:22.131Z,16.00
2018-10-05T02:21:50.487Z,15.80
2018-10-05T02:24:18.869Z,15.70
2018-10-05T02:26:46.997Z,15.60
2018-10-05T02:29:15.129Z,15.50
2018-10-05T02:31:43.251Z,15.40
2018-10-05T02:34:11.374Z,15.30
2018-10-05T02:36:39.580Z,15.20
2018-10-05T02:39:09.604Z,15.10
2018-10-05T02:41:37.755Z,15.10
2018-10-05T02:44:05.956Z,15.00
2018-10-05T02:46:34.092Z,15.00
2018-10-05T02:49:02.416Z,14.90
2018-10-05T02:51:30.567Z,14.90
2018-10-05T02:53:58.802Z,14.80
2018-10-05T02:56:27.020Z,14.70
2018-10-05T02:58:55.168Z,14.70
2018-10-05T03:01:34.572Z,14.60
2018-10-05T03:04:02.709Z,14.60
2018-10-05T03:06:30.919Z,14.60
2018-10-05T03:08:59.058Z,14.60
2018-10-05T03:11:27.544Z,14.60
2018-10-05T03:13:55.709Z,14.50
2018-10-05T03:16:24.061Z,14.50
2018-10-05T03:18:52.941Z,14.40
2018-10-05T03:21:21.536Z,14.40
2018-10-05T03:23:51.392Z,14.40
2018-10-05T03:26:19.661Z,14.30
2018-10-05T03:28:48.627Z,14.30
2018-10-05T03:31:17.717Z,14.20
2018-10-05T03:33:46.407Z,14.20
2018-10-05T03:36:14.577Z,14.10
2018-10-05T03:38:42.740Z,14.10
2018-10-05T03:41:10.968Z,14.10
2018-10-05T03:43:39.145Z,14.10
2018-10-05T03:46:07.292Z,14.00
2018-10-05T03:48:35.455Z,14.00
2018-10-05T03:51:03.779Z,14.00
2018-10-05T03:53:32.279Z,14.00
2018-10-05T03:56:00.400Z,14.00
2018-10-05T03:58:28.521Z,14.00
2018-10-05T04:00:56.640Z,13.90
2018-10-05T04:03:24.788Z,13.90
2018-10-05T04:05:53.932Z,13.90
2018-10-05T04:08:22.268Z,13.90
2018-10-05T04:10:50.643Z,13.80
2018-10-05T04:13:19.349Z,13.70
2018-10-05T04:15:47.674Z,13.70
2018-10-05T04:18:16.605Z,13.70
2018-10-05T04:20:44.740Z,13.80
2018-10-05T04:23:12.882Z,13.80
2018-10-05T04:25:41.240Z,13.70
2018-10-05T04:28:09.664Z,13.70
2018-10-05T04:30:37.836Z,13.70
2018-10-05T04:33:06.032Z,13.70
2018-10-05T04:35:34.256Z,13.70
2018-10-05T04:38:02.297Z,13.60
2018-10-05T04:40:30.804Z,13.60
2018-10-05T04:42:59.016Z,13.60
2018-10-05T04:45:27.131Z,13.60
2018-10-05T04:47:55.252Z,13.60
2018-10-05T04:50:23.707Z,13.60
2018-10-05T04:52:52.466Z,13.60
2018-10-05T04:55:20.714Z,13.60
2018-10-05T04:57:48.842Z,13.60
2018-10-05T05:00:18.127Z,13.60
2018-10-05T05:02:46.512Z,13.60
2018-10-05T05:05:14.960Z,13.60
2018-10-05T05:07:43.086Z,13.60
2018-10-05T05:10:11.220Z,13.60
2018-10-05T05:12:39.383Z,13.50
2018-10-05T05:15:07.527Z,13.50
2018-10-05T05:17:35.672Z,13.50
2018-10-05T05:20:03.839Z,13.50
2018-10-05T05:22:32.066Z,13.50
2018-10-05T05:25:00.416Z,13.50
2018-10-05T05:27:28.545Z,13.50
2018-10-05T05:29:56.892Z,13.50
2018-10-05T05:32:25.025Z,13.50
2018-10-05T05:34:53.149Z,13.20
2018-10-05T05:37:21.249Z,13.50
2018-10-05T05:39:49.379Z,13.40
2018-10-05T05:42:18.036Z,13.40
2018-10-05T05:44:46.191Z,13.40
2018-10-05T05:47:14.320Z,13.40
2018-10-05T05:49:42.438Z,13.30
2018-10-05T05:52:10.852Z,13.20
2018-10-05T05:54:38.959Z,13.20
2018-10-05T05:57:07.440Z,13.30
2018-10-05T05:59:35.565Z,13.20
2018-10-05T06:02:04.020Z,13.20
2018-10-05T06:04:32.151Z,13.20
2018-10-05T06:07:01.092Z,13.30
2018-10-05T06:09:29.583Z,13.30
2018-10-05T06:11:57.701Z,13.30
2018-10-05T06:14:25.828Z,13.30
2018-10-05T06:16:54.469Z,13.30
2018-10-05T06:19:22.832Z,13.30
2018-10-05T06:21:51.104Z,13.30
2018-10-05T06:24:19.496Z,13.40
2018-10-05T06:26:47.612Z,13.40
2018-10-05T06:29:15.721Z,13.40
2018-10-05T06:31:43.857Z,13.50
2018-10-05T06:34:11.976Z,13.50
2018-10-05T06:36:40.108Z,13.60
2018-10-05T06:39:08.866Z,13.60
2018-10-05T06:41:37.141Z,13.70
2018-10-05T06:44:05.337Z,13.80
2018-10-05T06:46:33.455Z,13.80
2018-10-05T06:49:01.583Z,13.90
2018-10-05T06:51:29.711Z,14.00
2018-10-05T06:53:57.848Z,14.00
2018-10-05T06:56:25.984Z,14.10
2018-10-05T06:58:54.135Z,14.20
2018-10-05T07:01:22.326Z,14.30
2018-10-05T07:03:50.482Z,14.30
2018-10-05T07:06:18.607Z,14.40
2018-10-05T07:08:46.871Z,14.50
2018-10-05T07:11:15.002Z,14.70
2018-10-05T07:13:43.185Z,14.80
2018-10-05T07:16:11.346Z,14.90
2018-10-05T07:18:39.552Z,15.10
2018-10-05T07:21:08.367Z,15.30
2018-10-05T07:23:36.564Z,15.50
2018-10-05T07:26:04.724Z,15.50
2018-10-05T07:28:33.004Z,15.60
2018-10-05T07:31:00.980Z,15.70
2018-10-05T07:33:29.132Z,15.80
2018-10-05T07:35:57.288Z,15.80
2018-10-05T07:38:25.628Z,15.90
2018-10-05T07:40:53.731Z,15.90
2018-10-05T07:43:21.859Z,16.00
2018-10-05T07:45:49.976Z,16.10
2018-10-05T07:48:18.195Z,16.20
2018-10-05T07:50:46.360Z,16.30
2018-10-05T07:53:14.841Z,16.40
2018-10-05T07:55:43.283Z,16.60
2018-10-05T07:58:11.891Z,16.70
2018-10-05T08:00:40.545Z,16.80
2018-10-05T08:03:08.657Z,16.90
2018-10-05T08:05:36.797Z,17.00
2018-10-05T08:08:04.922Z,17.30
2018-10-05T08:10:33.046Z,17.40
2018-10-05T08:13:01.187Z,17.60
2018-10-05T08:15:29.330Z,17.70
2018-10-05T08:17:57.460Z,17.80
2018-10-05T08:20:25.903Z,17.90
2018-10-05T08:22:54.047Z,18.00
2018-10-05T08:25:22.172Z,18.10
2018-10-05T08:27:50.321Z,18.20
2018-10-05T08:30:18.423Z,18.30
2018-10-05T08:32:46.636Z,18.40
2018-10-05T08:35:14.763Z,18.60
2018-10-05T08:37:42.921Z,18.80
2018-10-05T08:40:11.406Z,18.90
2018-10-05T08:42:39.716Z,19.10
2018-10-05T08:45:08.029Z,19.50
2018-10-05T08:47:36.159Z,20.10
2018-10-05T08:50:04.281Z,21.50
2018-10-05T08:52:32.867Z,23.40
2018-10-05T08:55:00.988Z,25.40
2018-10-05T08:57:29.108Z,26.70
2018-10-05T08:59:57.272Z,28.30
2018-10-05T09:02:25.616Z,29.30
2018-10-05T09:04:54.652Z,31.40
2018-10-05T09:07:23.132Z,33.10
2018-10-05T09:09:51.252Z,34.60
2018-10-05T09:12:19.369Z,35.60
2018-10-05T09:14:47.601Z,36.60
2018-10-05T09:17:15.717Z,37.50
2018-10-05T09:19:43.832Z,38.40
2018-10-05T09:22:11.953Z,39.10
2018-10-05T09:24:40.103Z,39.40
2018-10-05T09:29:36.163Z,39.30
2018-10-05T09:32:04.284Z,39.80
2018-10-05T09:34:32.430Z,40.40
2018-10-05T09:37:00.549Z,40.80
2018-10-05T09:39:28.733Z,39.80
2018-10-05T09:41:56.849Z,38.60
2018-10-05T09:44:24.956Z,38.90
2018-10-05T09:46:53.072Z,37.20
2018-10-05T09:49:21.521Z,37.10
2018-10-05T09:51:49.692Z,35.90
2018-10-05T09:54:18.402Z,36.00
2018-10-05T09:56:46.588Z,35.20
2018-10-05T09:59:14.724Z,33.20
2018-10-05T10:01:48.163Z,34.30
2018-10-05T10:04:16.274Z,34.20
2018-10-05T10:06:44.393Z,34.30
2018-10-05T10:09:12.516Z,34.90
2018-10-05T10:11:40.639Z,34.20
2018-10-05T10:14:08.825Z,33.10
2018-10-05T10:16:37.224Z,31.00
2018-10-05T10:19:05.364Z,30.00
2018-10-05T10:21:33.852Z,29.80
2018-10-05T10:24:01.988Z,29.70
2018-10-05T10:26:30.120Z,29.20
2018-10-05T10:28:58.372Z,28.90
2018-10-05T10:31:26.804Z,28.70
2018-10-05T10:33:54.958Z,28.70
2018-10-05T10:36:23.081Z,28.50
2018-10-05T10:38:51.233Z,28.70
2018-10-05T10:41:19.351Z,28.80
2018-10-05T10:43:47.670Z,29.10
2018-10-05T10:46:15.833Z,29.00
2018-10-05T10:48:43.949Z,28.90
2018-10-05T10:51:12.082Z,28.50
2018-10-05T10:53:40.196Z,28.30
2018-10-05T10:56:08.359Z,28.50
2018-10-05T10:58:36.492Z,28.90
2018-10-05T11:01:04.616Z,28.60
2018-10-05T11:03:32.759Z,28.80
2018-10-05T11:06:01.032Z,29.00
2018-10-05T11:08:29.170Z,28.40
2018-10-05T11:13:25.232Z,28.70
2018-10-05T11:15:53.384Z,30.20
2018-10-05T11:18:21.510Z,29.20
2018-10-05T11:20:49.645Z,29.50
2018-10-05T11:23:18.713Z,29.60
2018-10-05T11:25:46.865Z,29.80
2018-10-05T11:28:14.973Z,30.20
2018-10-05T11:30:43.095Z,30.10
2018-10-05T11:33:11.231Z,30.30
2018-10-05T11:35:39.375Z,30.30
2018-10-05T11:38:07.815Z,30.30
2018-10-05T11:40:35.999Z,30.30
2018-10-05T11:43:04.069Z,29.60
2018-10-05T11:45:32.550Z,29.80
2018-10-05T11:48:00.688Z,30.00
2018-10-05T11:50:29.153Z,30.20
2018-10-05T11:52:57.271Z,30.60
2018-10-05T11:55:25.540Z,30.70
2018-10-05T11:57:54.236Z,30.70
2018-10-05T12:00:22.414Z,30.80
2018-10-05T12:02:50.743Z,30.80
2018-10-05T12:05:18.911Z,30.50
2018-10-05T12:07:46.967Z,30.50
2018-10-05T12:10:15.097Z,30.80
2018-10-05T12:12:44.296Z,31.10
2018-10-05T12:15:12.427Z,30.70
2018-10-05T12:17:40.567Z,30.40
2018-10-05T12:20:08.853Z,30.30
2018-10-05T12:22:36.982Z,30.40
2018-10-05T12:25:05.589Z,30.60
2018-10-05T12:27:33.704Z,30.80
2018-10-05T12:30:01.847Z,30.80
2018-10-05T12:32:30.242Z,30.80
2018-10-05T12:34:58.336Z,31.10
2018-10-05T12:37:26.452Z,31.30
2018-10-05T12:39:54.600Z,31.50
2018-10-05T12:42:22.738Z,31.40
2018-10-05T12:44:51.067Z,31.50
2018-10-05T12:47:19.213Z,31.20
2018-10-05T12:49:47.676Z,31.20
2018-10-05T12:52:15.794Z,30.70
2018-10-05T12:54:44.339Z,30.60
2018-10-05T12:57:13.042Z,31.00
2018-10-05T12:59:41.488Z,31.00
2018-10-05T13:02:10.432Z,31.00
2018-10-05T13:04:38.585Z,30.70
2018-10-05T13:07:06.711Z,30.40
2018-10-05T13:09:35.061Z,30.40
2018-10-05T13:12:03.290Z,30.50
2018-10-05T13:14:31.403Z,30.60
2018-10-05T13:17:00.178Z,30.80
2018-10-05T13:19:28.277Z,30.90
2018-10-05T13:21:56.452Z,31.00
2018-10-05T13:24:24.528Z,31.30
2018-10-05T13:26:53.070Z,31.20
2018-10-05T13:29:21.184Z,30.70
2018-10-05T13:31:49.325Z,30.90
2018-10-05T13:34:17.454Z,31.00
2018-10-05T13:36:45.571Z,30.90
2018-10-05T13:39:13.680Z,30.40
2018-10-05T13:41:41.835Z,30.30
2018-10-05T13:44:09.979Z,30.40
2018-10-05T13:46:38.101Z,30.20
2018-10-05T13:49:06.505Z,30.30
2018-10-05T13:51:35.788Z,30.00
2018-10-05T13:54:04.064Z,29.60
2018-10-05T13:56:32.695Z,29.60
2018-10-05T13:59:00.815Z,29.60
2018-10-05T14:01:28.938Z,29.60
2018-10-05T14:03:57.133Z,29.80
2018-10-05T14:06:25.304Z,29.80
2018-10-05T14:08:53.429Z,30.10
2018-10-05T14:11:21.553Z,30.30
2018-10-05T14:13:49.963Z,30.00
2018-10-05T14:16:19.383Z,29.50
2018-10-05T14:18:48.249Z,29.00
2018-10-05T14:21:16.956Z,28.80
2018-10-05T14:23:45.223Z,29.10
2018-10-05T14:26:13.388Z,28.90
2018-10-05T14:28:41.772Z,28.70
2018-10-05T14:31:09.852Z,28.60
2018-10-05T14:33:38.046Z,28.90
2018-10-05T14:36:06.244Z,28.70
2018-10-05T14:38:34.363Z,28.80
2018-10-05T14:41:02.480Z,28.90
2018-10-05T14:43:30.615Z,29.00
2018-10-05T14:45:58.784Z,28.80
2018-10-05T14:48:26.940Z,29.00
2018-10-05T14:50:55.255Z,29.00
2018-10-05T14:53:23.399Z,28.70
2018-10-05T14:55:51.515Z,28.90
2018-10-05T14:58:19.672Z,29.00
2018-10-05T15:00:47.791Z,28.80
2018-10-05T15:03:15.919Z,28.90
2018-10-05T15:05:44.043Z,29.30
2018-10-05T15:08:12.188Z,29.40
2018-10-05T15:10:40.756Z,29.30
2018-10-05T15:13:09.393Z,29.00
2018-10-05T15:15:37.781Z,28.70
2018-10-05T15:18:06.044Z,28.80
2018-10-05T15:20:34.162Z,28.70
2018-10-05T15:23:02.339Z,28.90
2018-10-05T15:25:30.464Z,29.00
2018-10-05T15:27:58.598Z,29.50
2018-10-05T15:30:26.760Z,29.90
2018-10-05T15:32:54.973Z,30.50
2018-10-05T15:35:23.488Z,30.80
2018-10-05T15:37:51.857Z,31.20
2018-10-05T15:40:19.975Z,31.10
2018-10-05T15:42:48.092Z,31.20
2018-10-05T15:45:16.420Z,31.10
2018-10-05T15:47:44.563Z,30.70
2018-10-05T15:50:12.671Z,30.80
2018-10-05T15:52:40.821Z,30.80
2018-10-05T15:55:09.124Z,30.20
2018-10-05T15:57:37.492Z,29.80
2018-10-05T16:00:06.064Z,29.70
2018-10-05T16:02:34.432Z,29.40
2018-10-05T16:05:02.522Z,29.30
2018-10-05T16:07:30.633Z,28.60
2018-10-05T16:09:58.739Z,28.50
2018-10-05T16:12:27.323Z,28.30
2018-10-05T16:14:55.337Z,28.30
2018-10-05T16:17:23.488Z,27.80
2018-10-05T16:19:51.613Z,27.80
2018-10-05T16:22:19.732Z,27.60
2018-10-05T16:24:47.907Z,27.40
2018-10-05T16:27:16.000Z,27.40
2018-10-05T16:29:44.581Z,27.30
2018-10-05T16:32:13.150Z,27.20
2018-10-05T16:34:41.362Z,27.00
2018-10-05T16:37:09.518Z,26.90
2018-10-05T16:39:37.650Z,27.10
2018-10-05T16:42:05.778Z,27.20
2018-10-05T16:44:34.032Z,27.10
2018-10-05T16:47:02.149Z,26.90
2018-10-05T16:49:30.283Z,26.70
2018-10-05T16:54:26.323Z,25.90
2018-10-05T17:04:19.513Z,25.10
2018-10-05T17:09:15.815Z,24.50
2018-10-05T17:31:28.635Z,23.90
2018-10-05T17:33:56.965Z,23.90
2018-10-05T17:36:25.441Z,24.80
2018-10-05T17:38:53.577Z,23.60
2018-10-05T17:41:22.024Z,23.50
2018-10-05T17:43:50.169Z,23.40
2018-10-05T17:46:18.390Z,23.30
2018-10-05T17:48:46.626Z,23.30
2018-10-05T17:51:15.077Z,23.10
2018-10-05T17:53:43.356Z,23.10
2018-10-05T17:56:11.660Z,22.90
2018-10-05T17:58:39.910Z,22.70
2018-10-05T18:01:08.309Z,22.70
2018-10-05T18:03:36.452Z,22.70
2018-10-05T18:06:04.636Z,22.50
2018-10-05T18:08:32.843Z,22.50
2018-10-05T18:11:00.885Z,22.40
2018-10-05T18:13:28.987Z,22.10
2018-10-05T18:15:57.291Z,22.00
2018-10-05T18:18:25.972Z,22.10
2018-10-05T18:20:54.193Z,21.90
2018-10-05T18:23:22.341Z,22.00
2018-10-05T18:25:50.652Z,22.00
2018-10-05T18:28:19.548Z,22.00
2018-10-05T18:33:15.585Z,21.60
2018-10-05T18:35:43.694Z,21.60
2018-10-05T19:02:51.445Z,21.70
2018-10-05T19:17:39.528Z,21.40
2018-10-05T19:20:07.664Z,21.30
2018-10-05T19:37:23.771Z,21.70
2018-10-05T19:42:19.818Z,21.40
2018-10-05T20:02:03.991Z,21.10
2018-10-05T20:09:28.404Z,20.80
2018-10-05T20:44:01.768Z,20.00
2018-10-05T20:53:56.879Z,20.00
2018-10-05T20:58:54.621Z,19.60
2018-10-05T21:01:23.795Z,19.70
2018-10-05T21:03:52.775Z,20.00
2018-10-05T21:08:51.413Z,20.20
2018-10-05T21:11:20.647Z,20.20
2018-10-05T21:45:53.140Z,19.70
2018-10-05T21:48:21.258Z,19.60
2018-10-05T21:50:49.588Z,19.60
2018-10-05T21:53:17.741Z,19.80
2018-10-05T21:55:45.829Z,19.90
2018-10-05T21:58:14.238Z,19.80
2018-10-05T22:00:42.900Z,19.50
2018-10-05T22:03:11.612Z,19.20
2018-10-05T22:05:39.712Z,19.30
2018-10-05T22:08:07.831Z,19.30
2018-10-05T22:10:35.960Z,19.50
2018-10-05T22:13:04.092Z,19.50
2018-10-05T22:15:32.228Z,19.70
2018-10-05T22:18:00.384Z,19.80
2018-10-05T22:20:28.489Z,19.70
2018-10-05T22:22:56.628Z,20.00
2018-10-05T22:25:24.745Z,20.10
2018-10-05T22:27:52.873Z,20.00
2018-10-05T22:30:21.011Z,20.00
2018-10-05T22:32:49.144Z,20.00
2018-10-05T22:35:17.251Z,20.00
2018-10-05T22:37:45.475Z,19.80
2018-10-05T22:40:13.600Z,19.90
2018-10-05T22:42:41.748Z,20.10
2018-10-05T22:45:10.189Z,19.90
2018-10-05T22:47:38.591Z,19.60
2018-10-05T22:50:06.699Z,19.70
2018-10-05T22:52:34.826Z,19.60
2018-10-05T22:55:02.944Z,19.60
2018-10-05T22:57:31.054Z,19.50
2018-10-05T22:59:59.195Z,19.90
2018-10-05T23:02:27.327Z,19.80
2018-10-05T23:04:55.437Z,19.70
2018-10-05T23:07:23.571Z,19.70
2018-10-05T23:09:51.697Z,19.60
2018-10-05T23:12:20.097Z,19.20
2018-10-05T23:14:48.221Z,19.30
2018-10-05T23:17:16.324Z,19.40
2018-10-05T23:19:44.447Z,19.60
2018-10-05T23:22:12.964Z,19.50
2018-10-05T23:24:41.116Z,19.70
2018-10-05T23:27:09.232Z,19.60
2018-10-05T23:29:37.384Z,19.50
2018-10-05T23:32:05.922Z,19.40
2018-10-05T23:34:34.076Z,18.90
2018-10-05T23:37:02.634Z,19.00
2018-10-05T23:39:31.472Z,19.40
2018-10-05T23:41:59.584Z,19.40
2018-10-05T23:44:27.721Z,19.20
2018-10-05T23:46:55.851Z,19.40
2018-10-05T23:49:23.956Z,19.40
2018-10-05T23:51:52.383Z,19.60
2018-10-05T23:54:20.516Z,19.70
2018-10-05T23:56:48.671Z,19.60
2018-10-05T23:59:16.792Z,19.20
